sensor_id;sensor_type;location;lat;lon;timestamp;P1;durP1;ratioP1;P2;durP2;ratioP2
16270;SDS011;8243;49.048;8.396;2022-10-16T00:01:13;7.07;;;2.07;;
16270;SDS011;8243;49.048;8.396;2022-10-16T00:03:41;9.07;;;2.23;;
16270;SDS011;8243;49.048;8.396;2022-10-16T00:06:08;11.23;;;2.53;;
16270;SDS011;8243;49.048;8.396;2022-10-16T00:08:35;8.50;;;2.10;;
16270;SDS011;8243;49.048;8.396;2022-10-16T00:11:03;11.37;;;2.70;;
16270;SDS011;8243;49.048;8.396;2022-10-16T00:13:34;9.23;;;2.17;;
16270;SDS011;8243;49.048;8.396;2022-10-16T00:16:01;8.33;;;2.13;;
16270;SDS011;8243;49.048;8.396;2022-10-16T00:18:27;4.83;;;2.43;;
16270;SDS011;8243;49.048;8.396;2022-10-16T00:20:54;7.80;;;2.80;;
16270;SDS011;8243;49.048;8.396;2022-10-16T00:23:20;10.63;;;2.73;;
16270;SDS011;8243;49.048;8.396;2022-10-16T00:25:56;9.63;;;2.40;;
16270;SDS011;8243;49.048;8.396;2022-10-16T00:28:22;6.93;;;2.20;;
16270;SDS011;8243;49.048;8.396;2022-10-16T00:30:48;3.83;;;2.07;;
16270;SDS011;8243;49.048;8.396;2022-10-16T00:33:14;6.80;;;2.30;;
16270;SDS011;8243;49.048;8.396;2022-10-16T00:35:39;10.53;;;3.13;;
16270;SDS011;8243;49.048;8.396;2022-10-16T00:38:05;9.53;;;2.60;;
16270;SDS011;8243;49.048;8.396;2022-10-16T00:40:31;4.37;;;2.20;;
16270;SDS011;8243;49.048;8.396;2022-10-16T00:42:56;6.37;;;2.50;;
16270;SDS011;8243;49.048;8.396;2022-10-16T00:45:22;3.90;;;2.33;;
16270;SDS011;8243;49.048;8.396;2022-10-16T00:47:48;7.83;;;2.90;;
16270;SDS011;8243;49.048;8.396;2022-10-16T00:52:48;7.87;;;2.53;;
16270;SDS011;8243;49.048;8.396;2022-10-16T00:55:16;8.00;;;2.47;;
16270;SDS011;8243;49.048;8.396;2022-10-16T00:57:42;9.87;;;2.57;;
16270;SDS011;8243;49.048;8.396;2022-10-16T01:00:10;7.40;;;2.50;;
16270;SDS011;8243;49.048;8.396;2022-10-16T01:02:38;5.87;;;2.17;;
16270;SDS011;8243;49.048;8.396;2022-10-16T01:05:04;7.20;;;2.33;;
16270;SDS011;8243;49.048;8.396;2022-10-16T01:15:30;7.93;;;2.70;;
16270;SDS011;8243;49.048;8.396;2022-10-16T01:20:35;5.43;;;2.50;;
16270;SDS011;8243;49.048;8.396;2022-10-16T01:28:21;9.77;;;2.60;;
16270;SDS011;8243;49.048;8.396;2022-10-16T01:30:52;9.90;;;2.70;;
16270;SDS011;8243;49.048;8.396;2022-10-16T01:33:24;6.53;;;2.13;;
16270;SDS011;8243;49.048;8.396;2022-10-16T01:36:02;8.83;;;2.37;;
16270;SDS011;8243;49.048;8.396;2022-10-16T01:38:36;5.70;;;2.40;;
16270;SDS011;8243;49.048;8.396;2022-10-16T01:41:06;7.23;;;2.20;;
16270;SDS011;8243;49.048;8.396;2022-10-16T01:43:38;6.60;;;1.93;;
16270;SDS011;8243;49.048;8.396;2022-10-16T01:46:11;6.50;;;2.40;;
16270;SDS011;8243;49.048;8.396;2022-10-16T01:48:40;11.83;;;2.30;;
16270;SDS011;8243;49.048;8.396;2022-10-16T01:51:07;7.30;;;2.20;;
16270;SDS011;8243;49.048;8.396;2022-10-16T01:53:36;11.23;;;2.30;;
16270;SDS011;8243;49.048;8.396;2022-10-16T01:56:04;9.37;;;2.43;;
16270;SDS011;8243;49.048;8.396;2022-10-16T01:58:35;9.60;;;2.47;;
16270;SDS011;8243;49.048;8.396;2022-10-16T02:01:05;3.67;;;2.30;;
16270;SDS011;8243;49.048;8.396;2022-10-16T02:03:34;6.20;;;2.57;;
16270;SDS011;8243;49.048;8.396;2022-10-16T02:06:02;3.20;;;2.37;;
16270;SDS011;8243;49.048;8.396;2022-10-16T02:08:28;8.20;;;2.60;;
16270;SDS011;8243;49.048;8.396;2022-10-16T02:10:56;7.90;;;2.30;;
16270;SDS011;8243;49.048;8.396;2022-10-16T02:13:24;3.63;;;2.20;;
16270;SDS011;8243;49.048;8.396;2022-10-16T02:16:06;5.87;;;2.47;;
16270;SDS011;8243;49.048;8.396;2022-10-16T02:18:32;8.43;;;2.30;;
16270;SDS011;8243;49.048;8.396;2022-10-16T02:26:12;6.83;;;2.57;;
16270;SDS011;8243;49.048;8.396;2022-10-16T02:28:41;2.73;;;2.10;;
16270;SDS011;8243;49.048;8.396;2022-10-16T02:31:14;6.40;;;2.30;;
16270;SDS011;8243;49.048;8.396;2022-10-16T02:33:43;6.83;;;2.80;;
16270;SDS011;8243;49.048;8.396;2022-10-16T02:36:10;4.60;;;2.47;;
16270;SDS011;8243;49.048;8.396;2022-10-16T02:38:36;3.50;;;1.97;;
16270;SDS011;8243;49.048;8.396;2022-10-16T02:41:04;4.20;;;1.97;;
16270;SDS011;8243;49.048;8.396;2022-10-16T02:43:29;6.60;;;2.40;;
16270;SDS011;8243;49.048;8.396;2022-10-16T02:45:55;5.47;;;2.53;;
16270;SDS011;8243;49.048;8.396;2022-10-16T02:48:20;5.93;;;2.77;;
16270;SDS011;8243;49.048;8.396;2022-10-16T02:50:46;5.90;;;2.60;;
16270;SDS011;8243;49.048;8.396;2022-10-16T02:53:11;4.60;;;2.50;;
16270;SDS011;8243;49.048;8.396;2022-10-16T02:55:37;9.77;;;2.57;;
16270;SDS011;8243;49.048;8.396;2022-10-16T02:58:02;5.50;;;2.77;;
16270;SDS011;8243;49.048;8.396;2022-10-16T03:00:28;6.90;;;2.80;;
16270;SDS011;8243;49.048;8.396;2022-10-16T03:02:54;4.63;;;2.70;;
16270;SDS011;8243;49.048;8.396;2022-10-16T03:05:19;6.60;;;2.77;;
16270;SDS011;8243;49.048;8.396;2022-10-16T03:07:45;5.13;;;2.73;;
16270;SDS011;8243;49.048;8.396;2022-10-16T03:10:10;4.60;;;2.80;;
16270;SDS011;8243;49.048;8.396;2022-10-16T03:12:36;7.07;;;2.80;;
16270;SDS011;8243;49.048;8.396;2022-10-16T03:15:02;7.00;;;2.80;;
16270;SDS011;8243;49.048;8.396;2022-10-16T03:17:27;5.83;;;3.00;;
16270;SDS011;8243;49.048;8.396;2022-10-16T03:19:53;6.17;;;2.60;;
16270;SDS011;8243;49.048;8.396;2022-10-16T03:22:18;7.07;;;2.90;;
16270;SDS011;8243;49.048;8.396;2022-10-16T03:24:44;7.10;;;2.50;;
16270;SDS011;8243;49.048;8.396;2022-10-16T03:27:09;6.07;;;3.23;;
16270;SDS011;8243;49.048;8.396;2022-10-16T03:29:35;10.37;;;2.63;;
16270;SDS011;8243;49.048;8.396;2022-10-16T03:32:01;7.83;;;2.70;;
16270;SDS011;8243;49.048;8.396;2022-10-16T03:34:26;7.40;;;2.67;;
16270;SDS011;8243;49.048;8.396;2022-10-16T03:36:52;7.97;;;2.90;;
16270;SDS011;8243;49.048;8.396;2022-10-16T03:39:18;8.23;;;2.67;;
16270;SDS011;8243;49.048;8.396;2022-10-16T03:41:44;9.73;;;2.87;;
16270;SDS011;8243;49.048;8.396;2022-10-16T03:44:11;7.70;;;2.87;;
16270;SDS011;8243;49.048;8.396;2022-10-16T03:46:37;7.07;;;2.73;;
16270;SDS011;8243;49.048;8.396;2022-10-16T03:49:02;6.20;;;2.40;;
16270;SDS011;8243;49.048;8.396;2022-10-16T03:51:28;2.50;;;2.30;;
16270;SDS011;8243;49.048;8.396;2022-10-16T03:53:53;7.57;;;2.97;;
16270;SDS011;8243;49.048;8.396;2022-10-16T03:56:19;7.63;;;2.40;;
16270;SDS011;8243;49.048;8.396;2022-10-16T03:58:45;7.00;;;2.30;;
16270;SDS011;8243;49.048;8.396;2022-10-16T04:01:10;3.03;;;2.27;;
16270;SDS011;8243;49.048;8.396;2022-10-16T04:03:36;2.57;;;2.00;;
16270;SDS011;8243;49.048;8.396;2022-10-16T04:06:02;5.07;;;2.27;;
16270;SDS011;8243;49.048;8.396;2022-10-16T04:08:27;9.83;;;2.50;;
16270;SDS011;8243;49.048;8.396;2022-10-16T04:10:53;6.47;;;2.50;;
16270;SDS011;8243;49.048;8.396;2022-10-16T04:13:19;8.43;;;2.53;;
16270;SDS011;8243;49.048;8.396;2022-10-16T04:15:44;6.20;;;2.60;;
16270;SDS011;8243;49.048;8.396;2022-10-16T04:18:10;5.50;;;2.20;;
16270;SDS011;8243;49.048;8.396;2022-10-16T04:20:36;5.27;;;2.30;;
16270;SDS011;8243;49.048;8.396;2022-10-16T04:23:02;7.03;;;2.50;;
16270;SDS011;8243;49.048;8.396;2022-10-16T04:25:28;7.33;;;2.37;;
16270;SDS011;8243;49.048;8.396;2022-10-16T04:27:53;10.93;;;2.90;;
16270;SDS011;8243;49.048;8.396;2022-10-16T04:30:20;7.53;;;2.43;;
16270;SDS011;8243;49.048;8.396;2022-10-16T04:32:49;6.83;;;2.60;;
16270;SDS011;8243;49.048;8.396;2022-10-16T04:35:16;12.37;;;2.50;;
16270;SDS011;8243;49.048;8.396;2022-10-16T04:37:42;5.27;;;2.03;;
16270;SDS011;8243;49.048;8.396;2022-10-16T04:40:08;8.60;;;2.20;;
16270;SDS011;8243;49.048;8.396;2022-10-16T04:42:34;6.43;;;2.00;;
16270;SDS011;8243;49.048;8.396;2022-10-16T04:44:59;5.63;;;2.40;;
16270;SDS011;8243;49.048;8.396;2022-10-16T04:47:25;8.67;;;2.27;;
16270;SDS011;8243;49.048;8.396;2022-10-16T04:49:50;6.77;;;2.50;;
16270;SDS011;8243;49.048;8.396;2022-10-16T04:52:16;9.23;;;2.43;;
16270;SDS011;8243;49.048;8.396;2022-10-16T04:54:42;6.70;;;2.23;;
16270;SDS011;8243;49.048;8.396;2022-10-16T04:57:09;6.90;;;2.40;;
16270;SDS011;8243;49.048;8.396;2022-10-16T04:59:35;12.43;;;2.57;;
16270;SDS011;8243;49.048;8.396;2022-10-16T05:02:01;5.40;;;2.07;;
16270;SDS011;8243;49.048;8.396;2022-10-16T05:04:27;5.87;;;2.03;;
16270;SDS011;8243;49.048;8.396;2022-10-16T05:06:52;5.93;;;1.90;;
16270;SDS011;8243;49.048;8.396;2022-10-16T05:09:18;6.70;;;2.23;;
16270;SDS011;8243;49.048;8.396;2022-10-16T05:11:43;4.90;;;2.27;;
16270;SDS011;8243;49.048;8.396;2022-10-16T05:14:09;5.37;;;2.17;;
16270;SDS011;8243;49.048;8.396;2022-10-16T05:16:34;9.17;;;2.30;;
16270;SDS011;8243;49.048;8.396;2022-10-16T05:19:00;6.07;;;2.03;;
16270;SDS011;8243;49.048;8.396;2022-10-16T05:21:26;3.53;;;2.10;;
16270;SDS011;8243;49.048;8.396;2022-10-16T05:23:52;7.50;;;2.80;;
16270;SDS011;8243;49.048;8.396;2022-10-16T05:26:19;4.17;;;2.30;;
16270;SDS011;8243;49.048;8.396;2022-10-16T05:28:45;3.90;;;1.90;;
16270;SDS011;8243;49.048;8.396;2022-10-16T05:31:12;2.97;;;1.83;;
16270;SDS011;8243;49.048;8.396;2022-10-16T05:33:37;3.43;;;2.17;;
16270;SDS011;8243;49.048;8.396;2022-10-16T05:36:03;4.57;;;1.90;;
16270;SDS011;8243;49.048;8.396;2022-10-16T05:38:31;5.63;;;2.17;;
16270;SDS011;8243;49.048;8.396;2022-10-16T05:40:56;6.33;;;2.43;;
16270;SDS011;8243;49.048;8.396;2022-10-16T05:43:22;7.00;;;2.27;;
16270;SDS011;8243;49.048;8.396;2022-10-16T05:45:54;4.70;;;2.03;;
16270;SDS011;8243;49.048;8.396;2022-10-16T05:48:20;5.50;;;2.10;;
16270;SDS011;8243;49.048;8.396;2022-10-16T05:50:46;4.87;;;2.13;;
16270;SDS011;8243;49.048;8.396;2022-10-16T05:53:11;11.97;;;2.30;;
16270;SDS011;8243;49.048;8.396;2022-10-16T05:55:37;8.33;;;2.83;;
16270;SDS011;8243;49.048;8.396;2022-10-16T05:58:02;7.03;;;2.23;;
16270;SDS011;8243;49.048;8.396;2022-10-16T06:00:28;7.67;;;2.00;;
16270;SDS011;8243;49.048;8.396;2022-10-16T06:02:53;8.17;;;2.23;;
16270;SDS011;8243;49.048;8.396;2022-10-16T06:05:19;6.93;;;2.10;;
16270;SDS011;8243;49.048;8.396;2022-10-16T06:07:44;6.43;;;2.30;;
16270;SDS011;8243;49.048;8.396;2022-10-16T06:10:10;7.47;;;2.00;;
16270;SDS011;8243;49.048;8.396;2022-10-16T06:12:35;4.63;;;2.40;;
16270;SDS011;8243;49.048;8.396;2022-10-16T06:15:01;7.00;;;2.50;;
16270;SDS011;8243;49.048;8.396;2022-10-16T06:17:26;3.63;;;2.30;;
16270;SDS011;8243;49.048;8.396;2022-10-16T06:19:52;3.93;;;2.20;;
16270;SDS011;8243;49.048;8.396;2022-10-16T06:22:17;6.30;;;2.50;;
16270;SDS011;8243;49.048;8.396;2022-10-16T06:24:43;6.47;;;2.23;;
16270;SDS011;8243;49.048;8.396;2022-10-16T06:27:08;4.00;;;2.10;;
16270;SDS011;8243;49.048;8.396;2022-10-16T06:29:34;4.83;;;2.40;;
16270;SDS011;8243;49.048;8.396;2022-10-16T06:32:00;6.47;;;2.30;;
16270;SDS011;8243;49.048;8.396;2022-10-16T06:34:25;5.40;;;2.27;;
16270;SDS011;8243;49.048;8.396;2022-10-16T06:36:51;8.20;;;2.00;;
16270;SDS011;8243;49.048;8.396;2022-10-16T06:39:16;5.37;;;2.07;;
16270;SDS011;8243;49.048;8.396;2022-10-16T06:41:42;8.83;;;2.40;;
16270;SDS011;8243;49.048;8.396;2022-10-16T06:44:07;3.93;;;1.87;;
16270;SDS011;8243;49.048;8.396;2022-10-16T06:46:33;4.27;;;2.13;;
16270;SDS011;8243;49.048;8.396;2022-10-16T06:48:59;4.07;;;2.40;;
16270;SDS011;8243;49.048;8.396;2022-10-16T06:51:25;10.70;;;2.10;;
16270;SDS011;8243;49.048;8.396;2022-10-16T06:53:54;6.27;;;2.27;;
16270;SDS011;8243;49.048;8.396;2022-10-16T06:56:24;8.13;;;2.30;;
16270;SDS011;8243;49.048;8.396;2022-10-16T06:58:51;11.60;;;2.47;;
16270;SDS011;8243;49.048;8.396;2022-10-16T07:01:18;10.07;;;2.40;;
16270;SDS011;8243;49.048;8.396;2022-10-16T07:03:45;3.77;;;2.63;;
16270;SDS011;8243;49.048;8.396;2022-10-16T07:06:13;2.47;;;2.20;;
16270;SDS011;8243;49.048;8.396;2022-10-16T07:08:41;6.03;;;2.10;;
16270;SDS011;8243;49.048;8.396;2022-10-16T07:11:09;3.70;;;2.27;;
16270;SDS011;8243;49.048;8.396;2022-10-16T07:13:37;6.50;;;2.37;;
16270;SDS011;8243;49.048;8.396;2022-10-16T07:16:07;2.33;;;2.07;;
16270;SDS011;8243;49.048;8.396;2022-10-16T07:18:34;3.30;;;2.10;;
16270;SDS011;8243;49.048;8.396;2022-10-16T07:21:06;4.23;;;1.83;;
16270;SDS011;8243;49.048;8.396;2022-10-16T07:23:33;2.37;;;2.00;;
16270;SDS011;8243;49.048;8.396;2022-10-16T07:25:58;5.63;;;1.80;;
16270;SDS011;8243;49.048;8.396;2022-10-16T07:28:24;2.50;;;2.10;;
16270;SDS011;8243;49.048;8.396;2022-10-16T07:30:50;3.80;;;2.20;;
16270;SDS011;8243;49.048;8.396;2022-10-16T07:33:15;3.67;;;2.10;;
16270;SDS011;8243;49.048;8.396;2022-10-16T07:36:15;3.57;;;1.90;;
16270;SDS011;8243;49.048;8.396;2022-10-16T07:38:33;5.13;;;1.90;;
16270;SDS011;8243;49.048;8.396;2022-10-16T07:41:03;5.03;;;1.93;;
16270;SDS011;8243;49.048;8.396;2022-10-16T07:43:31;3.60;;;2.00;;
16270;SDS011;8243;49.048;8.396;2022-10-16T07:45:57;3.23;;;1.80;;
16270;SDS011;8243;49.048;8.396;2022-10-16T07:48:23;3.93;;;2.87;;
16270;SDS011;8243;49.048;8.396;2022-10-16T07:50:52;4.63;;;2.20;;
16270;SDS011;8243;49.048;8.396;2022-10-16T07:53:17;5.43;;;2.10;;
16270;SDS011;8243;49.048;8.396;2022-10-16T07:55:43;2.97;;;2.00;;
16270;SDS011;8243;49.048;8.396;2022-10-16T07:58:09;3.73;;;2.67;;
16270;SDS011;8243;49.048;8.396;2022-10-16T08:00:35;3.73;;;2.00;;
16270;SDS011;8243;49.048;8.396;2022-10-16T08:03:02;2.33;;;2.00;;
16270;SDS011;8243;49.048;8.396;2022-10-16T08:05:28;3.83;;;2.33;;
16270;SDS011;8243;49.048;8.396;2022-10-16T08:07:56;4.60;;;2.23;;
16270;SDS011;8243;49.048;8.396;2022-10-16T08:10:22;4.53;;;2.00;;
16270;SDS011;8243;49.048;8.396;2022-10-16T08:12:50;2.73;;;2.17;;
16270;SDS011;8243;49.048;8.396;2022-10-16T08:15:16;3.93;;;1.97;;
16270;SDS011;8243;49.048;8.396;2022-10-16T08:17:42;3.67;;;2.00;;
16270;SDS011;8243;49.048;8.396;2022-10-16T08:20:10;3.67;;;1.83;;
16270;SDS011;8243;49.048;8.396;2022-10-16T08:22:38;2.23;;;2.00;;
16270;SDS011;8243;49.048;8.396;2022-10-16T08:25:04;3.50;;;1.80;;
16270;SDS011;8243;49.048;8.396;2022-10-16T08:27:31;10.87;;;1.87;;
16270;SDS011;8243;49.048;8.396;2022-10-16T08:29:57;3.73;;;1.90;;
16270;SDS011;8243;49.048;8.396;2022-10-16T08:32:22;7.40;;;1.80;;
16270;SDS011;8243;49.048;8.396;2022-10-16T08:34:48;3.13;;;1.70;;
16270;SDS011;8243;49.048;8.396;2022-10-16T08:37:14;2.37;;;1.60;;
16270;SDS011;8243;49.048;8.396;2022-10-16T08:39:39;2.93;;;1.80;;
16270;SDS011;8243;49.048;8.396;2022-10-16T08:42:15;4.97;;;1.90;;
16270;SDS011;8243;49.048;8.396;2022-10-16T08:50:27;2.50;;;1.60;;
16270;SDS011;8243;49.048;8.396;2022-10-16T08:52:55;7.27;;;1.80;;
16270;SDS011;8243;49.048;8.396;2022-10-16T09:00:46;3.37;;;1.80;;
16270;SDS011;8243;49.048;8.396;2022-10-16T09:06:39;1.77;;;1.50;;
16270;SDS011;8243;49.048;8.396;2022-10-16T09:11:57;1.70;;;1.50;;
16270;SDS011;8243;49.048;8.396;2022-10-16T09:15:10;4.00;;;1.60;;
16270;SDS011;8243;49.048;8.396;2022-10-16T09:20:34;3.63;;;1.70;;
16270;SDS011;8243;49.048;8.396;2022-10-16T09:23:13;3.63;;;1.97;;
16270;SDS011;8243;49.048;8.396;2022-10-16T09:25:47;2.87;;;1.77;;
16270;SDS011;8243;49.048;8.396;2022-10-16T09:28:14;4.70;;;1.90;;
16270;SDS011;8243;49.048;8.396;2022-10-16T09:30:41;4.57;;;2.00;;
16270;SDS011;8243;49.048;8.396;2022-10-16T09:33:07;4.97;;;1.90;;
16270;SDS011;8243;49.048;8.396;2022-10-16T09:35:39;4.13;;;2.07;;
16270;SDS011;8243;49.048;8.396;2022-10-16T09:38:07;2.57;;;1.77;;
16270;SDS011;8243;49.048;8.396;2022-10-16T09:40:35;4.70;;;1.83;;
16270;SDS011;8243;49.048;8.396;2022-10-16T09:45:55;7.50;;;2.00;;
16270;SDS011;8243;49.048;8.396;2022-10-16T09:48:31;4.07;;;1.93;;
16270;SDS011;8243;49.048;8.396;2022-10-16T09:51:03;2.40;;;1.80;;
16270;SDS011;8243;49.048;8.396;2022-10-16T09:53:38;4.33;;;2.07;;
16270;SDS011;8243;49.048;8.396;2022-10-16T09:56:06;5.53;;;1.73;;
16270;SDS011;8243;49.048;8.396;2022-10-16T09:58:32;6.17;;;1.80;;
16270;SDS011;8243;49.048;8.396;2022-10-16T10:00:58;2.83;;;1.73;;
16270;SDS011;8243;49.048;8.396;2022-10-16T10:06:25;6.20;;;2.00;;
16270;SDS011;8243;49.048;8.396;2022-10-16T10:08:59;1.93;;;1.77;;
16270;SDS011;8243;49.048;8.396;2022-10-16T10:19:38;5.17;;;2.10;;
16270;SDS011;8243;49.048;8.396;2022-10-16T10:35:46;3.73;;;1.70;;
16270;SDS011;8243;49.048;8.396;2022-10-16T10:41:12;1.80;;;1.70;;
16270;SDS011;8243;49.048;8.396;2022-10-16T10:44:11;4.10;;;1.90;;
16270;SDS011;8243;49.048;8.396;2022-10-16T10:47:47;4.73;;;2.03;;
16270;SDS011;8243;49.048;8.396;2022-10-16T10:49:57;3.77;;;1.63;;
16270;SDS011;8243;49.048;8.396;2022-10-16T11:01:05;2.80;;;1.57;;
16270;SDS011;8243;49.048;8.396;2022-10-16T11:17:02;2.10;;;1.40;;
16270;SDS011;8243;49.048;8.396;2022-10-16T11:19:37;6.53;;;1.40;;
16270;SDS011;8243;49.048;8.396;2022-10-16T11:24:54;3.70;;;1.50;;
16270;SDS011;8243;49.048;8.396;2022-10-16T11:27:40;3.47;;;2.00;;
16270;SDS011;8243;49.048;8.396;2022-10-16T11:30:12;5.20;;;2.00;;
16270;SDS011;8243;49.048;8.396;2022-10-16T11:35:53;6.80;;;1.70;;
16270;SDS011;8243;49.048;8.396;2022-10-16T11:38:30;1.33;;;1.30;;
16270;SDS011;8243;49.048;8.396;2022-10-16T11:41:11;4.67;;;1.90;;
16270;SDS011;8243;49.048;8.396;2022-10-16T11:44:09;6.93;;;3.23;;
16270;SDS011;8243;49.048;8.396;2022-10-16T11:47:01;5.10;;;3.53;;
16270;SDS011;8243;49.048;8.396;2022-10-16T11:49:29;5.47;;;2.30;;
16270;SDS011;8243;49.048;8.396;2022-10-16T11:54:54;3.83;;;1.57;;
16270;SDS011;8243;49.048;8.396;2022-10-16T11:57:40;2.60;;;1.70;;
16270;SDS011;8243;49.048;8.396;2022-10-16T12:00:20;2.63;;;1.70;;
16270;SDS011;8243;49.048;8.396;2022-10-16T12:02:57;3.47;;;1.53;;
16270;SDS011;8243;49.048;8.396;2022-10-16T12:08:09;1.90;;;1.80;;
16270;SDS011;8243;49.048;8.396;2022-10-16T12:10:41;3.70;;;1.50;;
16270;SDS011;8243;49.048;8.396;2022-10-16T12:15:52;1.50;;;1.40;;
16270;SDS011;8243;49.048;8.396;2022-10-16T12:18:41;2.70;;;1.50;;
16270;SDS011;8243;49.048;8.396;2022-10-16T12:21:09;2.30;;;1.77;;
16270;SDS011;8243;49.048;8.396;2022-10-16T12:24:00;2.70;;;1.47;;
16270;SDS011;8243;49.048;8.396;2022-10-16T12:28:52;1.87;;;1.37;;
16270;SDS011;8243;49.048;8.396;2022-10-16T12:31:19;2.27;;;1.50;;
16270;SDS011;8243;49.048;8.396;2022-10-16T12:33:54;1.70;;;1.60;;
16270;SDS011;8243;49.048;8.396;2022-10-16T12:36:28;6.53;;;1.40;;
16270;SDS011;8243;49.048;8.396;2022-10-16T12:38:56;2.07;;;1.80;;
16270;SDS011;8243;49.048;8.396;2022-10-16T12:41:32;3.60;;;1.43;;
16270;SDS011;8243;49.048;8.396;2022-10-16T12:43:59;3.73;;;1.60;;
16270;SDS011;8243;49.048;8.396;2022-10-16T12:46:37;2.43;;;1.37;;
16270;SDS011;8243;49.048;8.396;2022-10-16T12:51:41;2.53;;;1.30;;
16270;SDS011;8243;49.048;8.396;2022-10-16T12:54:12;5.00;;;1.80;;
16270;SDS011;8243;49.048;8.396;2022-10-16T13:05:24;2.73;;;1.30;;
16270;SDS011;8243;49.048;8.396;2022-10-16T13:08:27;4.17;;;1.40;;
16270;SDS011;8243;49.048;8.396;2022-10-16T13:16:53;3.33;;;2.00;;
16270;SDS011;8243;49.048;8.396;2022-10-16T13:22:19;7.50;;;2.30;;
16270;SDS011;8243;49.048;8.396;2022-10-16T13:25:14;4.97;;;2.13;;
16270;SDS011;8243;49.048;8.396;2022-10-16T13:27:52;3.57;;;2.50;;
16270;SDS011;8243;49.048;8.396;2022-10-16T13:30:30;4.70;;;2.50;;
16270;SDS011;8243;49.048;8.396;2022-10-16T13:33:12;5.67;;;1.77;;
16270;SDS011;8243;49.048;8.396;2022-10-16T13:35:50;5.00;;;1.90;;
16270;SDS011;8243;49.048;8.396;2022-10-16T13:38:19;2.33;;;1.60;;
16270;SDS011;8243;49.048;8.396;2022-10-16T13:46:04;2.57;;;1.80;;
16270;SDS011;8243;49.048;8.396;2022-10-16T13:48:31;7.50;;;1.93;;
16270;SDS011;8243;49.048;8.396;2022-10-16T13:51:03;4.30;;;2.13;;
16270;SDS011;8243;49.048;8.396;2022-10-16T13:53:32;3.10;;;2.00;;
16270;SDS011;8243;49.048;8.396;2022-10-16T13:56:02;2.07;;;1.87;;
16270;SDS011;8243;49.048;8.396;2022-10-16T13:58:32;3.83;;;2.10;;
16270;SDS011;8243;49.048;8.396;2022-10-16T14:00:58;3.90;;;1.77;;
16270;SDS011;8243;49.048;8.396;2022-10-16T14:03:27;4.60;;;1.90;;
16270;SDS011;8243;49.048;8.396;2022-10-16T14:05:55;3.57;;;1.80;;
16270;SDS011;8243;49.048;8.396;2022-10-16T14:08:31;7.57;;;1.90;;
16270;SDS011;8243;49.048;8.396;2022-10-16T14:10:59;2.13;;;1.60;;
16270;SDS011;8243;49.048;8.396;2022-10-16T14:13:29;3.87;;;1.80;;
16270;SDS011;8243;49.048;8.396;2022-10-16T14:16:05;3.50;;;1.80;;
16270;SDS011;8243;49.048;8.396;2022-10-16T14:18:33;3.07;;;2.00;;
16270;SDS011;8243;49.048;8.396;2022-10-16T14:21:06;2.10;;;1.90;;
16270;SDS011;8243;49.048;8.396;2022-10-16T14:23:36;4.33;;;1.70;;
16270;SDS011;8243;49.048;8.396;2022-10-16T14:28:36;6.97;;;1.90;;
16270;SDS011;8243;49.048;8.396;2022-10-16T14:31:14;7.03;;;2.27;;
16270;SDS011;8243;49.048;8.396;2022-10-16T14:33:50;4.47;;;2.37;;
16270;SDS011;8243;49.048;8.396;2022-10-16T14:36:16;4.87;;;2.53;;
16270;SDS011;8243;49.048;8.396;2022-10-16T14:38:53;4.50;;;2.13;;
16270;SDS011;8243;49.048;8.396;2022-10-16T14:41:41;3.73;;;2.00;;
16270;SDS011;8243;49.048;8.396;2022-10-16T14:44:10;3.10;;;1.73;;
16270;SDS011;8243;49.048;8.396;2022-10-16T14:46:37;2.00;;;1.70;;
16270;SDS011;8243;49.048;8.396;2022-10-16T14:49:13;9.77;;;2.03;;
16270;SDS011;8243;49.048;8.396;2022-10-16T14:51:52;4.33;;;1.70;;
16270;SDS011;8243;49.048;8.396;2022-10-16T14:57:16;5.40;;;1.90;;
16270;SDS011;8243;49.048;8.396;2022-10-16T14:59:44;4.67;;;1.80;;
16270;SDS011;8243;49.048;8.396;2022-10-16T15:04:55;6.03;;;2.37;;
16270;SDS011;8243;49.048;8.396;2022-10-16T15:07:22;3.30;;;2.20;;
16270;SDS011;8243;49.048;8.396;2022-10-16T15:09:48;4.27;;;1.70;;
16270;SDS011;8243;49.048;8.396;2022-10-16T15:12:13;3.77;;;1.97;;
16270;SDS011;8243;49.048;8.396;2022-10-16T15:14:39;4.10;;;2.20;;
16270;SDS011;8243;49.048;8.396;2022-10-16T15:17:04;5.13;;;2.10;;
16270;SDS011;8243;49.048;8.396;2022-10-16T15:19:30;3.97;;;1.90;;
16270;SDS011;8243;49.048;8.396;2022-10-16T15:21:56;9.40;;;2.30;;
16270;SDS011;8243;49.048;8.396;2022-10-16T15:24:21;6.70;;;2.10;;
16270;SDS011;8243;49.048;8.396;2022-10-16T15:26:47;7.30;;;2.20;;
16270;SDS011;8243;49.048;8.396;2022-10-16T15:29:14;5.47;;;2.10;;
16270;SDS011;8243;49.048;8.396;2022-10-16T15:31:40;7.20;;;2.27;;
16270;SDS011;8243;49.048;8.396;2022-10-16T15:34:09;5.30;;;2.07;;
16270;SDS011;8243;49.048;8.396;2022-10-16T15:36:36;5.73;;;1.90;;
16270;SDS011;8243;49.048;8.396;2022-10-16T15:39:03;4.47;;;2.20;;
16270;SDS011;8243;49.048;8.396;2022-10-16T15:41:30;4.60;;;2.10;;
16270;SDS011;8243;49.048;8.396;2022-10-16T15:43:55;8.17;;;2.30;;
16270;SDS011;8243;49.048;8.396;2022-10-16T15:46:22;8.60;;;2.30;;
16270;SDS011;8243;49.048;8.396;2022-10-16T15:48:49;5.53;;;2.13;;
16270;SDS011;8243;49.048;8.396;2022-10-16T15:51:15;3.80;;;2.20;;
16270;SDS011;8243;49.048;8.396;2022-10-16T15:53:41;2.30;;;1.93;;
16270;SDS011;8243;49.048;8.396;2022-10-16T15:56:08;4.83;;;2.27;;
16270;SDS011;8243;49.048;8.396;2022-10-16T15:58:36;8.83;;;2.30;;
16270;SDS011;8243;49.048;8.396;2022-10-16T16:01:01;7.50;;;2.40;;
16270;SDS011;8243;49.048;8.396;2022-10-16T16:03:28;8.27;;;2.67;;
16270;SDS011;8243;49.048;8.396;2022-10-16T16:05:55;4.90;;;2.10;;
16270;SDS011;8243;49.048;8.396;2022-10-16T16:08:20;5.93;;;4.63;;
16270;SDS011;8243;49.048;8.396;2022-10-16T16:10:56;5.17;;;3.20;;
16270;SDS011;8243;49.048;8.396;2022-10-16T16:13:26;4.67;;;2.50;;
16270;SDS011;8243;49.048;8.396;2022-10-16T16:15:52;5.03;;;2.43;;
16270;SDS011;8243;49.048;8.396;2022-10-16T16:18:18;7.10;;;2.43;;
16270;SDS011;8243;49.048;8.396;2022-10-16T16:20:43;6.07;;;2.67;;
16270;SDS011;8243;49.048;8.396;2022-10-16T16:23:09;3.97;;;2.50;;
16270;SDS011;8243;49.048;8.396;2022-10-16T16:25:35;7.07;;;2.50;;
16270;SDS011;8243;49.048;8.396;2022-10-16T16:28:01;7.70;;;3.30;;
16270;SDS011;8243;49.048;8.396;2022-10-16T16:30:26;5.67;;;2.87;;
16270;SDS011;8243;49.048;8.396;2022-10-16T16:32:52;10.50;;;4.37;;
16270;SDS011;8243;49.048;8.396;2022-10-16T16:35:17;6.63;;;4.00;;
16270;SDS011;8243;49.048;8.396;2022-10-16T16:37:43;4.47;;;2.40;;
16270;SDS011;8243;49.048;8.396;2022-10-16T16:40:09;6.47;;;2.63;;
16270;SDS011;8243;49.048;8.396;2022-10-16T16:42:34;10.37;;;2.73;;
16270;SDS011;8243;49.048;8.396;2022-10-16T16:45:00;7.73;;;3.33;;
16270;SDS011;8243;49.048;8.396;2022-10-16T16:47:25;6.40;;;4.20;;
16270;SDS011;8243;49.048;8.396;2022-10-16T16:49:51;8.17;;;3.50;;
16270;SDS011;8243;49.048;8.396;2022-10-16T16:52:16;6.90;;;2.90;;
16270;SDS011;8243;49.048;8.396;2022-10-16T16:54:42;6.07;;;2.90;;
16270;SDS011;8243;49.048;8.396;2022-10-16T16:57:16;5.23;;;2.97;;
16270;SDS011;8243;49.048;8.396;2022-10-16T16:59:41;7.87;;;2.40;;
16270;SDS011;8243;49.048;8.396;2022-10-16T17:02:08;6.93;;;4.00;;
16270;SDS011;8243;49.048;8.396;2022-10-16T17:04:33;9.00;;;4.87;;
16270;SDS011;8243;49.048;8.396;2022-10-16T17:07:00;9.83;;;8.07;;
16270;SDS011;8243;49.048;8.396;2022-10-16T17:09:25;9.93;;;5.47;;
16270;SDS011;8243;49.048;8.396;2022-10-16T17:11:51;12.33;;;8.10;;
16270;SDS011;8243;49.048;8.396;2022-10-16T17:14:17;9.50;;;7.70;;
16270;SDS011;8243;49.048;8.396;2022-10-16T17:16:42;6.73;;;4.70;;
16270;SDS011;8243;49.048;8.396;2022-10-16T17:19:12;4.43;;;3.37;;
16270;SDS011;8243;49.048;8.396;2022-10-16T17:21:41;9.57;;;3.47;;
16270;SDS011;8243;49.048;8.396;2022-10-16T17:24:06;8.00;;;2.50;;
16270;SDS011;8243;49.048;8.396;2022-10-16T17:26:32;6.87;;;2.87;;
16270;SDS011;8243;49.048;8.396;2022-10-16T17:29:02;6.47;;;3.73;;
16270;SDS011;8243;49.048;8.396;2022-10-16T17:31:29;7.83;;;3.90;;
16270;SDS011;8243;49.048;8.396;2022-10-16T17:33:59;3.83;;;2.70;;
16270;SDS011;8243;49.048;8.396;2022-10-16T17:36:26;6.97;;;2.73;;